sensor_id;sensor_type;location;lat;lon;timestamp;P1;durP1;ratioP1;P2;durP2;ratioP2
4290;SDS011;2159;50.906;7.152;2024-01-15T00:01:50;19.20;;;10.17;;
4290;SDS011;2159;50.906;7.152;2024-01-15T00:04:18;20.17;;;9.70;;
4290;SDS011;2159;50.906;7.152;2024-01-15T00:06:45;21.30;;;10.47;;
4290;SDS011;2159;50.906;7.152;2024-01-15T00:09:13;22.93;;;11.33;;
4290;SDS011;2159;50.906;7.152;2024-01-15T00:11:40;23.30;;;10.30;;
4290;SDS011;2159;50.906;7.152;2024-01-15T00:14:08;20.00;;;9.60;;
4290;SDS011;2159;50.906;7.152;2024-01-15T00:16:37;20.30;;;10.40;;
4290;SDS011;2159;50.906;7.152;2024-01-15T00:19:05;19.33;;;10.10;;
4290;SDS011;2159;50.906;7.152;2024-01-15T00:21:32;21.97;;;9.97;;
4290;SDS011;2159;50.906;7.152;2024-01-15T00:24:00;24.30;;;10.07;;
4290;SDS011;2159;50.906;7.152;2024-01-15T00:26:27;21.23;;;10.80;;
4290;SDS011;2159;50.906;7.152;2024-01-15T00:28:55;25.47;;;11.60;;
4290;SDS011;2159;50.906;7.152;2024-01-15T00:31:22;21.60;;;10.50;;
4290;SDS011;2159;50.906;7.152;2024-01-15T00:33:51;24.83;;;11.57;;
4290;SDS011;2159;50.906;7.152;2024-01-15T00:36:19;26.30;;;10.60;;
4290;SDS011;2159;50.906;7.152;2024-01-15T00:38:47;24.47;;;10.90;;
4290;SDS011;2159;50.906;7.152;2024-01-15T00:41:14;22.20;;;10.40;;
4290;SDS011;2159;50.906;7.152;2024-01-15T00:43:42;25.30;;;11.50;;
4290;SDS011;2159;50.906;7.152;2024-01-15T00:46:09;25.97;;;11.20;;
4290;SDS011;2159;50.906;7.152;2024-01-15T00:48:37;22.17;;;10.73;;
4290;SDS011;2159;50.906;7.152;2024-01-15T00:51:06;29.90;;;10.93;;
4290;SDS011;2159;50.906;7.152;2024-01-15T00:53:34;23.93;;;11.50;;
4290;SDS011;2159;50.906;7.152;2024-01-15T00:56:01;24.70;;;12.13;;
4290;SDS011;2159;50.906;7.152;2024-01-15T00:58:29;19.90;;;9.87;;
4290;SDS011;2159;50.906;7.152;2024-01-15T01:00:56;25.73;;;11.67;;
4290;SDS011;2159;50.906;7.152;2024-01-15T01:03:24;27.07;;;11.77;;
4290;SDS011;2159;50.906;7.152;2024-01-15T01:05:52;22.10;;;10.50;;
4290;SDS011;2159;50.906;7.152;2024-01-15T01:08:21;22.63;;;11.40;;
4290;SDS011;2159;50.906;7.152;2024-01-15T01:10:48;27.50;;;12.00;;
4290;SDS011;2159;50.906;7.152;2024-01-15T01:13:16;27.13;;;12.17;;
4290;SDS011;2159;50.906;7.152;2024-01-15T01:15:43;28.73;;;11.80;;
4290;SDS011;2159;50.906;7.152;2024-01-15T01:18:11;26.10;;;12.23;;
4290;SDS011;2159;50.906;7.152;2024-01-15T01:20:38;24.17;;;11.13;;
4290;SDS011;2159;50.906;7.152;2024-01-15T01:23:06;24.73;;;11.10;;
4290;SDS011;2159;50.906;7.152;2024-01-15T01:25:35;25.37;;;10.50;;
4290;SDS011;2159;50.906;7.152;2024-01-15T01:28:03;28.43;;;12.73;;
4290;SDS011;2159;50.906;7.152;2024-01-15T01:30:30;26.30;;;11.47;;
4290;SDS011;2159;50.906;7.152;2024-01-15T01:32:58;24.53;;;11.90;;
4290;SDS011;2159;50.906;7.152;2024-01-15T01:35:26;23.20;;;11.47;;
4290;SDS011;2159;50.906;7.152;2024-01-15T01:37:53;26.63;;;11.47;;
4290;SDS011;2159;50.906;7.152;2024-01-15T01:40:21;27.87;;;12.10;;
4290;SDS011;2159;50.906;7.152;2024-01-15T01:42:49;22.97;;;11.70;;
4290;SDS011;2159;50.906;7.152;2024-01-15T01:45:17;24.57;;;11.80;;
4290;SDS011;2159;50.906;7.152;2024-01-15T01:47:44;28.50;;;11.50;;
4290;SDS011;2159;50.906;7.152;2024-01-15T01:50:12;28.60;;;11.50;;
4290;SDS011;2159;50.906;7.152;2024-01-15T01:52:39;25.70;;;11.93;;
4290;SDS011;2159;50.906;7.152;2024-01-15T01:55:08;23.63;;;11.60;;
4290;SDS011;2159;50.906;7.152;2024-01-15T01:57:36;28.10;;;13.03;;
4290;SDS011;2159;50.906;7.152;2024-01-15T02:00:06;22.63;;;11.70;;
4290;SDS011;2159;50.906;7.152;2024-01-15T02:02:34;22.37;;;11.50;;
4290;SDS011;2159;50.906;7.152;2024-01-15T02:05:01;22.30;;;11.67;;
4290;SDS011;2159;50.906;7.152;2024-01-15T02:07:30;26.30;;;12.20;;
4290;SDS011;2159;50.906;7.152;2024-01-15T02:09:58;25.57;;;12.27;;
4290;SDS011;2159;50.906;7.152;2024-01-15T02:12:26;27.90;;;12.07;;
4290;SDS011;2159;50.906;7.152;2024-01-15T02:14:53;24.43;;;11.80;;
4290;SDS011;2159;50.906;7.152;2024-01-15T02:17:22;30.27;;;13.30;;
4290;SDS011;2159;50.906;7.152;2024-01-15T02:19:50;24.67;;;12.37;;
4290;SDS011;2159;50.906;7.152;2024-01-15T02:22:17;29.27;;;12.80;;
4290;SDS011;2159;50.906;7.152;2024-01-15T02:24:46;28.57;;;12.60;;
4290;SDS011;2159;50.906;7.152;2024-01-15T02:27:14;26.00;;;11.87;;
4290;SDS011;2159;50.906;7.152;2024-01-15T02:29:42;28.33;;;11.70;;
4290;SDS011;2159;50.906;7.152;2024-01-15T02:32:10;24.33;;;12.30;;
4290;SDS011;2159;50.906;7.152;2024-01-15T02:34:37;26.77;;;12.53;;
4290;SDS011;2159;50.906;7.152;2024-01-15T02:37:05;29.10;;;12.23;;
4290;SDS011;2159;50.906;7.152;2024-01-15T02:39:32;26.30;;;11.80;;
4290;SDS011;2159;50.906;7.152;2024-01-15T02:42:01;22.20;;;11.70;;
4290;SDS011;2159;50.906;7.152;2024-01-15T02:44:28;28.20;;;12.40;;
4290;SDS011;2159;50.906;7.152;2024-01-15T02:46:56;27.13;;;12.20;;
4290;SDS011;2159;50.906;7.152;2024-01-15T02:49:23;23.10;;;11.07;;
4290;SDS011;2159;50.906;7.152;2024-01-15T02:51:51;26.60;;;11.83;;
4290;SDS011;2159;50.906;7.152;2024-01-15T02:54:19;26.43;;;12.13;;
4290;SDS011;2159;50.906;7.152;2024-01-15T02:56:46;26.53;;;12.17;;
4290;SDS011;2159;50.906;7.152;2024-01-15T02:59:15;24.27;;;12.40;;
4290;SDS011;2159;50.906;7.152;2024-01-15T03:01:43;25.10;;;11.97;;
4290;SDS011;2159;50.906;7.152;2024-01-15T03:04:10;23.57;;;11.70;;
4290;SDS011;2159;50.906;7.152;2024-01-15T03:06:38;25.43;;;11.87;;
4290;SDS011;2159;50.906;7.152;2024-01-15T03:09:06;26.13;;;11.90;;
4290;SDS011;2159;50.906;7.152;2024-01-15T03:11:36;20.40;;;11.23;;
4290;SDS011;2159;50.906;7.152;2024-01-15T03:14:04;26.57;;;12.07;;
4290;SDS011;2159;50.906;7.152;2024-01-15T03:16:33;25.73;;;11.50;;
4290;SDS011;2159;50.906;7.152;2024-01-15T03:19:01;24.03;;;11.63;;
4290;SDS011;2159;50.906;7.152;2024-01-15T03:21:28;26.80;;;11.20;;
4290;SDS011;2159;50.906;7.152;2024-01-15T03:23:56;26.77;;;12.43;;
4290;SDS011;2159;50.906;7.152;2024-01-15T03:26:23;21.77;;;11.17;;
4290;SDS011;2159;50.906;7.152;2024-01-15T03:28:51;23.10;;;11.17;;
4290;SDS011;2159;50.906;7.152;2024-01-15T03:31:18;23.13;;;12.07;;
4290;SDS011;2159;50.906;7.152;2024-01-15T03:33:47;25.97;;;11.63;;
4290;SDS011;2159;50.906;7.152;2024-01-15T03:36:15;23.33;;;11.30;;
4290;SDS011;2159;50.906;7.152;2024-01-15T03:38:42;21.93;;;10.70;;
4290;SDS011;2159;50.906;7.152;2024-01-15T03:41:10;21.90;;;11.40;;
4290;SDS011;2159;50.906;7.152;2024-01-15T03:43:37;19.50;;;10.33;;
4290;SDS011;2159;50.906;7.152;2024-01-15T03:46:05;24.17;;;11.07;;
4290;SDS011;2159;50.906;7.152;2024-01-15T03:48:33;24.03;;;11.53;;
4290;SDS011;2159;50.906;7.152;2024-01-15T03:51:02;19.73;;;11.30;;
4290;SDS011;2159;50.906;7.152;2024-01-15T03:53:29;22.13;;;11.10;;
4290;SDS011;2159;50.906;7.152;2024-01-15T03:55:57;23.03;;;11.20;;
4290;SDS011;2159;50.906;7.152;2024-01-15T03:58:24;22.73;;;11.83;;
4290;SDS011;2159;50.906;7.152;2024-01-15T04:00:52;22.70;;;12.03;;
4290;SDS011;2159;50.906;7.152;2024-01-15T04:03:20;23.03;;;11.30;;
4290;SDS011;2159;50.906;7.152;2024-01-15T04:05:48;21.30;;;11.17;;
4290;SDS011;2159;50.906;7.152;2024-01-15T04:08:16;22.37;;;11.97;;
4290;SDS011;2159;50.906;7.152;2024-01-15T04:10:44;26.47;;;11.93;;
4290;SDS011;2159;50.906;7.152;2024-01-15T04:13:14;23.00;;;12.20;;
4290;SDS011;2159;50.906;7.152;2024-01-15T04:15:42;25.33;;;12.10;;
4290;SDS011;2159;50.906;7.152;2024-01-15T04:18:09;22.73;;;11.83;;
4290;SDS011;2159;50.906;7.152;2024-01-15T04:20:37;20.37;;;11.20;;
4290;SDS011;2159;50.906;7.152;2024-01-15T04:23:04;24.30;;;12.30;;
4290;SDS011;2159;50.906;7.152;2024-01-15T04:25:33;23.00;;;11.40;;
4290;SDS011;2159;50.906;7.152;2024-01-15T04:28:01;23.73;;;12.43;;
4290;SDS011;2159;50.906;7.152;2024-01-15T04:30:29;24.30;;;12.80;;
4290;SDS011;2159;50.906;7.152;2024-01-15T04:32:56;23.33;;;12.40;;
4290;SDS011;2159;50.906;7.152;2024-01-15T04:35:24;22.90;;;12.30;;
4290;SDS011;2159;50.906;7.152;2024-01-15T04:37:51;20.77;;;11.40;;
4290;SDS011;2159;50.906;7.152;2024-01-15T04:40:19;20.63;;;11.00;;
4290;SDS011;2159;50.906;7.152;2024-01-15T04:42:48;22.23;;;10.53;;
4290;SDS011;2159;50.906;7.152;2024-01-15T04:45:15;23.50;;;11.13;;
4290;SDS011;2159;50.906;7.152;2024-01-15T04:47:44;20.97;;;11.27;;
4290;SDS011;2159;50.906;7.152;2024-01-15T04:50:12;24.33;;;11.97;;
4290;SDS011;2159;50.906;7.152;2024-01-15T04:52:39;21.00;;;11.37;;
4290;SDS011;2159;50.906;7.152;2024-01-15T04:55:07;26.80;;;11.60;;
4290;SDS011;2159;50.906;7.152;2024-01-15T04:57:35;31.10;;;11.03;;
4290;SDS011;2159;50.906;7.152;2024-01-15T05:00:04;23.90;;;11.50;;
4290;SDS011;2159;50.906;7.152;2024-01-15T05:02:32;21.40;;;11.27;;
4290;SDS011;2159;50.906;7.152;2024-01-15T05:04:59;25.30;;;12.00;;
4290;SDS011;2159;50.906;7.152;2024-01-15T05:07:27;23.63;;;12.00;;
4290;SDS011;2159;50.906;7.152;2024-01-15T05:09:54;20.37;;;11.20;;
4290;SDS011;2159;50.906;7.152;2024-01-15T05:12:22;20.23;;;11.30;;
4290;SDS011;2159;50.906;7.152;2024-01-15T05:14:49;18.80;;;10.90;;
4290;SDS011;2159;50.906;7.152;2024-01-15T05:17:18;27.57;;;11.40;;
4290;SDS011;2159;50.906;7.152;2024-01-15T05:19:46;22.93;;;10.23;;
4290;SDS011;2159;50.906;7.152;2024-01-15T05:22:14;21.17;;;10.83;;
4290;SDS011;2159;50.906;7.152;2024-01-15T05:24:41;21.97;;;10.67;;
4290;SDS011;2159;50.906;7.152;2024-01-15T05:27:09;19.17;;;9.67;;
4290;SDS011;2159;50.906;7.152;2024-01-15T05:29:36;22.20;;;10.27;;
4290;SDS011;2159;50.906;7.152;2024-01-15T05:32:04;20.67;;;10.50;;
4290;SDS011;2159;50.906;7.152;2024-01-15T05:34:33;19.07;;;10.10;;
4290;SDS011;2159;50.906;7.152;2024-01-15T05:37:01;22.30;;;10.43;;
4290;SDS011;2159;50.906;7.152;2024-01-15T05:39:28;19.87;;;10.57;;
4290;SDS011;2159;50.906;7.152;2024-01-15T05:41:56;17.50;;;9.93;;
4290;SDS011;2159;50.906;7.152;2024-01-15T05:44:23;17.40;;;9.87;;
4290;SDS011;2159;50.906;7.152;2024-01-15T05:46:50;18.77;;;10.17;;
4290;SDS011;2159;50.906;7.152;2024-01-15T05:49:18;19.27;;;10.67;;
4290;SDS011;2159;50.906;7.152;2024-01-15T05:51:47;18.80;;;10.47;;
4290;SDS011;2159;50.906;7.152;2024-01-15T05:54:15;18.03;;;9.80;;
4290;SDS011;2159;50.906;7.152;2024-01-15T05:56:42;23.37;;;10.10;;
4290;SDS011;2159;50.906;7.152;2024-01-15T05:59:10;15.80;;;8.57;;
4290;SDS011;2159;50.906;7.152;2024-01-15T06:01:41;17.73;;;9.20;;
4290;SDS011;2159;50.906;7.152;2024-01-15T06:04:08;16.67;;;9.60;;
4290;SDS011;2159;50.906;7.152;2024-01-15T06:06:36;17.73;;;9.13;;
4290;SDS011;2159;50.906;7.152;2024-01-15T06:09:05;16.30;;;8.70;;
4290;SDS011;2159;50.906;7.152;2024-01-15T06:11:32;18.13;;;9.17;;
4290;SDS011;2159;50.906;7.152;2024-01-15T06:14:00;13.63;;;8.10;;
4290;SDS011;2159;50.906;7.152;2024-01-15T06:16:28;17.70;;;9.00;;
4290;SDS011;2159;50.906;7.152;2024-01-15T06:18:56;20.00;;;8.80;;
4290;SDS011;2159;50.906;7.152;2024-01-15T06:21:24;15.50;;;8.50;;
4290;SDS011;2159;50.906;7.152;2024-01-15T06:23:51;15.23;;;8.50;;
4290;SDS011;2159;50.906;7.152;2024-01-15T06:26:20;15.43;;;8.60;;
4290;SDS011;2159;50.906;7.152;2024-01-15T06:28:48;17.53;;;9.17;;
4290;SDS011;2159;50.906;7.152;2024-01-15T06:31:16;17.87;;;9.13;;
4290;SDS011;2159;50.906;7.152;2024-01-15T06:33:43;14.77;;;8.70;;
4290;SDS011;2159;50.906;7.152;2024-01-15T06:36:13;15.20;;;7.93;;
4290;SDS011;2159;50.906;7.152;2024-01-15T06:38:43;15.30;;;8.90;;
4290;SDS011;2159;50.906;7.152;2024-01-15T06:41:10;16.10;;;8.87;;
4290;SDS011;2159;50.906;7.152;2024-01-15T06:43:39;17.03;;;9.40;;
4290;SDS011;2159;50.906;7.152;2024-01-15T06:46:06;18.97;;;8.80;;
4290;SDS011;2159;50.906;7.152;2024-01-15T06:48:34;17.47;;;8.77;;
4290;SDS011;2159;50.906;7.152;2024-01-15T06:51:02;16.00;;;9.33;;
4290;SDS011;2159;50.906;7.152;2024-01-15T06:53:30;18.23;;;9.03;;
4290;SDS011;2159;50.906;7.152;2024-01-15T06:55:57;16.90;;;9.47;;
4290;SDS011;2159;50.906;7.152;2024-01-15T06:58:25;15.03;;;8.90;;
4290;SDS011;2159;50.906;7.152;2024-01-15T07:00:53;16.40;;;9.10;;
4290;SDS011;2159;50.906;7.152;2024-01-15T07:03:21;21.77;;;10.00;;
4290;SDS011;2159;50.906;7.152;2024-01-15T07:05:49;19.03;;;8.63;;
4290;SDS011;2159;50.906;7.152;2024-01-15T07:08:16;18.37;;;9.60;;
4290;SDS011;2159;50.906;7.152;2024-01-15T07:10:44;17.23;;;9.30;;
4290;SDS011;2159;50.906;7.152;2024-01-15T07:13:11;15.70;;;9.20;;
4290;SDS011;2159;50.906;7.152;2024-01-15T07:15:38;16.17;;;9.33;;
4290;SDS011;2159;50.906;7.152;2024-01-15T07:18:07;15.00;;;8.97;;
4290;SDS011;2159;50.906;7.152;2024-01-15T07:20:35;16.70;;;9.10;;
4290;SDS011;2159;50.906;7.152;2024-01-15T07:23:03;21.67;;;9.37;;
4290;SDS011;2159;50.906;7.152;2024-01-15T07:25:31;17.83;;;9.47;;
4290;SDS011;2159;50.906;7.152;2024-01-15T07:27:59;20.27;;;9.93;;
4290;SDS011;2159;50.906;7.152;2024-01-15T07:30:30;16.43;;;9.43;;
4290;SDS011;2159;50.906;7.152;2024-01-15T07:32:57;17.47;;;8.70;;
4290;SDS011;2159;50.906;7.152;2024-01-15T07:35:26;18.90;;;10.23;;
4290;SDS011;2159;50.906;7.152;2024-01-15T07:37:54;17.43;;;9.73;;
4290;SDS011;2159;50.906;7.152;2024-01-15T07:40:21;19.23;;;10.33;;
4290;SDS011;2159;50.906;7.152;2024-01-15T07:42:49;17.37;;;9.07;;
4290;SDS011;2159;50.906;7.152;2024-01-15T07:45:17;15.00;;;9.03;;
4290;SDS011;2159;50.906;7.152;2024-01-15T07:47:44;20.77;;;9.97;;
4290;SDS011;2159;50.906;7.152;2024-01-15T07:50:12;17.70;;;9.37;;
4290;SDS011;2159;50.906;7.152;2024-01-15T07:52:41;12.90;;;8.80;;
4290;SDS011;2159;50.906;7.152;2024-01-15T07:55:09;21.63;;;8.87;;
4290;SDS011;2159;50.906;7.152;2024-01-15T07:57:36;14.90;;;9.40;;
4290;SDS011;2159;50.906;7.152;2024-01-15T08:00:04;18.30;;;9.30;;
4290;SDS011;2159;50.906;7.152;2024-01-15T08:02:32;18.17;;;10.00;;
4290;SDS011;2159;50.906;7.152;2024-01-15T08:05:03;19.93;;;10.27;;
4290;SDS011;2159;50.906;7.152;2024-01-15T08:07:31;18.33;;;10.17;;
4290;SDS011;2159;50.906;7.152;2024-01-15T08:09:59;19.27;;;10.27;;
4290;SDS011;2159;50.906;7.152;2024-01-15T08:12:27;20.43;;;10.50;;
4290;SDS011;2159;50.906;7.152;2024-01-15T08:14:55;21.53;;;10.87;;
4290;SDS011;2159;50.906;7.152;2024-01-15T08:17:22;24.43;;;10.30;;
4290;SDS011;2159;50.906;7.152;2024-01-15T08:19:54;19.87;;;10.40;;
4290;SDS011;2159;50.906;7.152;2024-01-15T08:22:23;20.87;;;10.23;;
4290;SDS011;2159;50.906;7.152;2024-01-15T08:24:50;17.90;;;9.40;;
4290;SDS011;2159;50.906;7.152;2024-01-15T08:27:23;20.53;;;10.90;;
4290;SDS011;2159;50.906;7.152;2024-01-15T08:29:50;19.50;;;9.93;;
4290;SDS011;2159;50.906;7.152;2024-01-15T08:32:18;18.67;;;9.37;;
4290;SDS011;2159;50.906;7.152;2024-01-15T08:34:45;23.70;;;10.97;;
4290;SDS011;2159;50.906;7.152;2024-01-15T08:37:14;21.27;;;10.60;;
4290;SDS011;2159;50.906;7.152;2024-01-15T08:39:41;18.30;;;10.10;;
4290;SDS011;2159;50.906;7.152;2024-01-15T08:42:09;19.27;;;10.90;;
4290;SDS011;2159;50.906;7.152;2024-01-15T08:44:39;19.30;;;10.07;;
4290;SDS011;2159;50.906;7.152;2024-01-15T08:47:09;16.77;;;9.67;;
4290;SDS011;2159;50.906;7.152;2024-01-15T08:49:36;18.20;;;10.33;;
4290;SDS011;2159;50.906;7.152;2024-01-15T08:52:04;21.47;;;10.87;;
4290;SDS011;2159;50.906;7.152;2024-01-15T08:54:31;19.30;;;10.00;;
4290;SDS011;2159;50.906;7.152;2024-01-15T08:56:59;17.47;;;10.60;;
4290;SDS011;2159;50.906;7.152;2024-01-15T08:59:27;25.60;;;11.20;;
4290;SDS011;2159;50.906;7.152;2024-01-15T09:01:55;19.50;;;10.47;;
4290;SDS011;2159;50.906;7.152;2024-01-15T09:04:23;19.00;;;10.53;;
4290;SDS011;2159;50.906;7.152;2024-01-15T09:06:51;19.87;;;10.77;;
4290;SDS011;2159;50.906;7.152;2024-01-15T09:09:19;18.67;;;9.87;;
4290;SDS011;2159;50.906;7.152;2024-01-15T09:11:47;19.70;;;10.90;;
4290;SDS011;2159;50.906;7.152;2024-01-15T09:14:15;17.27;;;10.10;;
4290;SDS011;2159;50.906;7.152;2024-01-15T09:16:51;17.70;;;9.97;;
4290;SDS011;2159;50.906;7.152;2024-01-15T09:19:20;20.30;;;10.20;;
4290;SDS011;2159;50.906;7.152;2024-01-15T09:21:47;17.80;;;9.90;;
4290;SDS011;2159;50.906;7.152;2024-01-15T09:24:15;16.70;;;8.77;;
4290;SDS011;2159;50.906;7.152;2024-01-15T09:26:52;20.83;;;9.63;;
4290;SDS011;2159;50.906;7.152;2024-01-15T09:29:20;16.50;;;8.80;;
4290;SDS011;2159;50.906;7.152;2024-01-15T09:31:49;20.33;;;9.67;;
4290;SDS011;2159;50.906;7.152;2024-01-15T09:34:17;17.07;;;9.10;;
4290;SDS011;2159;50.906;7.152;2024-01-15T09:36:47;15.37;;;8.00;;
4290;SDS011;2159;50.906;7.152;2024-01-15T09:39:15;16.63;;;8.03;;
4290;SDS011;2159;50.906;7.152;2024-01-15T09:41:43;14.53;;;8.10;;
4290;SDS011;2159;50.906;7.152;2024-01-15T09:44:11;13.57;;;7.30;;
4290;SDS011;2159;50.906;7.152;2024-01-15T09:46:39;12.63;;;6.87;;
4290;SDS011;2159;50.906;7.152;2024-01-15T09:49:07;12.93;;;7.03;;
4290;SDS011;2159;50.906;7.152;2024-01-15T09:51:35;11.33;;;6.90;;
4290;SDS011;2159;50.906;7.152;2024-01-15T09:54:04;13.90;;;6.63;;
4290;SDS011;2159;50.906;7.152;2024-01-15T09:56:32;11.83;;;6.20;;
4290;SDS011;2159;50.906;7.152;2024-01-15T09:58:59;11.43;;;6.50;;
4290;SDS011;2159;50.906;7.152;2024-01-15T10:01:27;11.10;;;7.07;;
4290;SDS011;2159;50.906;7.152;2024-01-15T10:03:55;11.80;;;6.77;;
4290;SDS011;2159;50.906;7.152;2024-01-15T10:06:23;10.23;;;6.70;;
4290;SDS011;2159;50.906;7.152;2024-01-15T10:08:50;11.43;;;6.30;;
4290;SDS011;2159;50.906;7.152;2024-01-15T10:11:19;9.30;;;6.30;;
4290;SDS011;2159;50.906;7.152;2024-01-15T10:13:47;9.53;;;5.83;;
4290;SDS011;2159;50.906;7.152;2024-01-15T10:16:21;9.80;;;6.20;;
4290;SDS011;2159;50.906;7.152;2024-01-15T10:18:49;10.37;;;6.30;;
4290;SDS011;2159;50.906;7.152;2024-01-15T10:21:16;14.00;;;6.53;;
4290;SDS011;2159;50.906;7.152;2024-01-15T10:23:45;8.13;;;5.60;;
4290;SDS011;2159;50.906;7.152;2024-01-15T10:26:12;8.47;;;6.10;;
4290;SDS011;2159;50.906;7.152;2024-01-15T10:28:47;10.07;;;5.90;;
4290;SDS011;2159;50.906;7.152;2024-01-15T10:31:17;9.50;;;6.10;;
4290;SDS011;2159;50.906;7.152;2024-01-15T10:33:50;10.67;;;6.73;;
4290;SDS011;2159;50.906;7.152;2024-01-15T10:36:18;9.17;;;6.13;;
4290;SDS011;2159;50.906;7.152;2024-01-15T10:38:46;7.50;;;5.50;;
4290;SDS011;2159;50.906;7.152;2024-01-15T10:41:13;6.57;;;5.00;;
4290;SDS011;2159;50.906;7.152;2024-01-15T10:43:42;5.73;;;5.10;;
4290;SDS011;2159;50.906;7.152;2024-01-15T10:46:12;6.83;;;4.87;;
4290;SDS011;2159;50.906;7.152;2024-01-15T10:48:40;6.33;;;4.93;;
4290;SDS011;2159;50.906;7.152;2024-01-15T10:51:07;5.33;;;4.33;;
4290;SDS011;2159;50.906;7.152;2024-01-15T10:53:38;7.60;;;4.47;;
4290;SDS011;2159;50.906;7.152;2024-01-15T10:56:06;7.47;;;4.73;;
4290;SDS011;2159;50.906;7.152;2024-01-15T10:58:34;7.03;;;5.20;;
4290;SDS011;2159;50.906;7.152;2024-01-15T11:01:02;5.50;;;4.40;;
4290;SDS011;2159;50.906;7.152;2024-01-15T11:03:32;6.90;;;4.37;;
4290;SDS011;2159;50.906;7.152;2024-01-15T11:06:00;8.67;;;4.80;;
4290;SDS011;2159;50.906;7.152;2024-01-15T11:08:29;5.60;;;4.10;;
4290;SDS011;2159;50.906;7.152;2024-01-15T11:10:57;4.27;;;3.87;;
4290;SDS011;2159;50.906;7.152;2024-01-15T11:13:39;9.57;;;3.97;;
4290;SDS011;2159;50.906;7.152;2024-01-15T11:16:07;5.13;;;3.63;;
4290;SDS011;2159;50.906;7.152;2024-01-15T11:18:37;5.87;;;4.00;;
4290;SDS011;2159;50.906;7.152;2024-01-15T11:21:19;4.47;;;4.03;;
4290;SDS011;2159;50.906;7.152;2024-01-15T11:23:48;3.67;;;3.37;;
4290;SDS011;2159;50.906;7.152;2024-01-15T11:26:32;4.37;;;3.97;;
4290;SDS011;2159;50.906;7.152;2024-01-15T11:29:01;5.43;;;3.77;;
4290;SDS011;2159;50.906;7.152;2024-01-15T11:31:30;5.93;;;3.80;;
4290;SDS011;2159;50.906;7.152;2024-01-15T11:34:19;4.53;;;3.60;;
4290;SDS011;2159;50.906;7.152;2024-01-15T11:37:01;4.33;;;3.40;;
4290;SDS011;2159;50.906;7.152;2024-01-15T11:39:42;3.90;;;3.43;;
4290;SDS011;2159;50.906;7.152;2024-01-15T11:42:10;5.40;;;3.43;;
4290;SDS011;2159;50.906;7.152;2024-01-15T11:44:38;6.13;;;3.43;;
4290;SDS011;2159;50.906;7.152;2024-01-15T11:47:06;3.33;;;3.03;;
4290;SDS011;2159;50.906;7.152;2024-01-15T11:49:46;6.13;;;3.17;;
4290;SDS011;2159;50.906;7.152;2024-01-15T11:52:20;3.07;;;2.80;;
4290;SDS011;2159;50.906;7.152;2024-01-15T11:54:49;4.43;;;3.30;;
4290;SDS011;2159;50.906;7.152;2024-01-15T11:57:18;4.20;;;3.30;;
4290;SDS011;2159;50.906;7.152;2024-01-15T11:59:49;5.00;;;3.97;;
4290;SDS011;2159;50.906;7.152;2024-01-15T12:02:17;3.90;;;3.50;;
4290;SDS011;2159;50.906;7.152;2024-01-15T12:04:46;5.67;;;3.97;;
4290;SDS011;2159;50.906;7.152;2024-01-15T12:07:13;4.70;;;4.30;;
4290;SDS011;2159;50.906;7.152;2024-01-15T12:09:42;6.87;;;4.90;;
4290;SDS011;2159;50.906;7.152;2024-01-15T12:12:11;6.00;;;5.33;;
4290;SDS011;2159;50.906;7.152;2024-01-15T12:14:41;6.17;;;5.30;;
4290;SDS011;2159;50.906;7.152;2024-01-15T12:17:09;5.70;;;5.10;;
4290;SDS011;2159;50.906;7.152;2024-01-15T12:19:37;5.60;;;5.03;;
4290;SDS011;2159;50.906;7.152;2024-01-15T12:22:06;5.83;;;5.10;;
4290;SDS011;2159;50.906;7.152;2024-01-15T12:24:33;9.20;;;5.90;;
4290;SDS011;2159;50.906;7.152;2024-01-15T12:27:01;9.03;;;6.40;;
4290;SDS011;2159;50.906;7.152;2024-01-15T12:29:29;7.87;;;6.07;;
4290;SDS011;2159;50.906;7.152;2024-01-15T12:31:57;7.53;;;6.20;;
4290;SDS011;2159;50.906;7.152;2024-01-15T12:34:28;9.40;;;6.20;;
4290;SDS011;2159;50.906;7.152;2024-01-15T12:36:56;8.53;;;6.10;;
4290;SDS011;2159;50.906;7.152;2024-01-15T12:39:25;10.03;;;6.87;;
4290;SDS011;2159;50.906;7.152;2024-01-15T12:41:53;11.20;;;6.67;;
4290;SDS011;2159;50.906;7.152;2024-01-15T12:44:20;11.57;;;6.50;;
4290;SDS011;2159;50.906;7.152;2024-01-15T12:46:47;9.00;;;6.53;;
4290;SDS011;2159;50.906;7.152;2024-01-15T12:49:15;10.63;;;6.20;;
4290;SDS011;2159;50.906;7.152;2024-01-15T12:51:42;11.50;;;6.20;;
4290;SDS011;2159;50.906;7.152;2024-01-15T12:54:10;8.77;;;6.17;;
4290;SDS011;2159;50.906;7.152;2024-01-15T12:56:40;10.20;;;6.47;;
4290;SDS011;2159;50.906;7.152;2024-01-15T12:59:07;11.27;;;5.87;;
4290;SDS011;2159;50.906;7.152;2024-01-15T13:01:35;7.90;;;5.50;;
4290;SDS011;2159;50.906;7.152;2024-01-15T13:04:02;7.97;;;6.00;;
4290;SDS011;2159;50.906;7.152;2024-01-15T13:06:30;14.90;;;5.90;;
4290;SDS011;2159;50.906;7.152;2024-01-15T13:08:58;10.17;;;5.20;;
4290;SDS011;2159;50.906;7.152;2024-01-15T13:11:26;12.00;;;5.77;;
4290;SDS011;2159;50.906;7.152;2024-01-15T13:13:55;6.70;;;4.90;;
4290;SDS011;2159;50.906;7.152;2024-01-15T13:16:23;11.93;;;4.47;;
4290;SDS011;2159;50.906;7.152;2024-01-15T13:18:53;7.50;;;4.80;;
4290;SDS011;2159;50.906;7.152;2024-01-15T13:21:21;9.97;;;4.50;;
4290;SDS011;2159;50.906;7.152;2024-01-15T13:23:48;7.90;;;4.40;;
4290;SDS011;2159;50.906;7.152;2024-01-15T13:26:16;12.33;;;4.43;;
4290;SDS011;2159;50.906;7.152;2024-01-15T13:28:44;7.73;;;4.50;;
4290;SDS011;2159;50.906;7.152;2024-01-15T13:31:13;6.27;;;4.40;;
4290;SDS011;2159;50.906;7.152;2024-01-15T13:33:41;8.80;;;4.40;;
4290;SDS011;2159;50.906;7.152;2024-01-15T13:36:10;6.57;;;4.40;;
4290;SDS011;2159;50.906;7.152;2024-01-15T13:38:37;8.33;;;4.53;;
4290;SDS011;2159;50.906;7.152;2024-01-15T13:41:05;11.20;;;4.43;;
4290;SDS011;2159;50.906;7.152;2024-01-15T13:43:32;4.30;;;3.60;;
4290;SDS011;2159;50.906;7.152;2024-01-15T13:46:00;8.73;;;4.43;;
4290;SDS011;2159;50.906;7.152;2024-01-15T13:48:32;6.40;;;3.90;;
4290;SDS011;2159;50.906;7.152;2024-01-15T13:50:59;6.87;;;4.57;;
4290;SDS011;2159;50.906;7.152;2024-01-15T13:53:27;9.17;;;3.70;;
4290;SDS011;2159;50.906;7.152;2024-01-15T13:55:54;3.83;;;3.37;;
4290;SDS011;2159;50.906;7.152;2024-01-15T13:58:22;3.80;;;3.50;;
4290;SDS011;2159;50.906;7.152;2024-01-15T14:00:51;9.90;;;3.43;;
4290;SDS011;2159;50.906;7.152;2024-01-15T14:03:19;7.43;;;3.23;;
4290;SDS011;2159;50.906;7.152;2024-01-15T14:05:48;7.00;;;3.30;;
4290;SDS011;2159;50.906;7.152;2024-01-15T14:08:17;3.67;;;3.37;;
4290;SDS011;2159;50.906;7.152;2024-01-15T14:10:46;6.87;;;3.10;;
4290;SDS011;2159;50.906;7.152;2024-01-15T14:13:13;4.53;;;3.33;;
4290;SDS011;2159;50.906;7.152;2024-01-15T14:15:41;5.37;;;2.70;;
4290;SDS011;2159;50.906;7.152;2024-01-15T14:18:08;2.77;;;2.57;;
4290;SDS011;2159;50.906;7.152;2024-01-15T14:20:36;4.57;;;2.70;;
4290;SDS011;2159;50.906;7.152;2024-01-15T14:23:05;2.60;;;2.50;;
4290;SDS011;2159;50.906;7.152;2024-01-15T14:25:33;2.80;;;2.37;;
4290;SDS011;2159;50.906;7.152;2024-01-15T14:28:00;2.67;;;2.40;;
4290;SDS011;2159;50.906;7.152;2024-01-15T14:30:28;3.40;;;2.80;;
4290;SDS011;2159;50.906;7.152;2024-01-15T14:32:55;2.67;;;2.47;;
4290;SDS011;2159;50.906;7.152;2024-01-15T14:35:23;3.00;;;2.33;;
4290;SDS011;2159;50.906;7.152;2024-01-15T14:37:50;2.50;;;2.30;;
4290;SDS011;2159;50.906;7.152;2024-01-15T14:40:19;4.63;;;2.57;;
4290;SDS011;2159;50.906;7.152;2024-01-15T14:42:47;2.53;;;2.43;;
4290;SDS011;2159;50.906;7.152;2024-01-15T14:45:15;2.77;;;2.57;;
4290;SDS011;2159;50.906;7.152;2024-01-15T14:47:42;3.60;;;2.90;;
4290;SDS011;2159;50.906;7.152;2024-01-15T14:50:10;3.47;;;2.50;;
4290;SDS011;2159;50.906;7.152;2024-01-15T14:52:38;3.23;;;2.20;;
4290;SDS011;2159;50.906;7.152;2024-01-15T14:55:06;3.13;;;2.83;;
4290;SDS011;2159;50.906;7.152;2024-01-15T14:57:36;3.33;;;3.00;;
4290;SDS011;2159;50.906;7.152;2024-01-15T15:00:04;3.50;;;2.50;;
4290;SDS011;2159;50.906;7.152;2024-01-15T15:02:34;2.97;;;2.77;;
4290;SDS011;2159;50.906;7.152;2024-01-15T15:05:02;3.13;;;2.80;;